Canas, Costa Rica
Current Conditions -  °F | °C
As of 11:00 AM on Monday 22 Dec 2014 (Local Time) from MRLB Reporting Station
Few Clouds Few Clouds  
Wind Chill: 88°   Ceiling: Unl
Heat Index: 89°   Visibility: 6mi
Dew Point: 64°   Wind: 14mph
Humidity: 46%   Direction: 90°E
Pressure: 29.83"   Gusts: NA
Location:  10.43°N, 85.1°W
Report Text: MRLB 221700Z 09012KT 9999 FEW035 31/18 A2983
Loading
Personal Weather Stations






























Interactive Weather Map New forecast layout! Learn more

10-Day Weather Forecast

Advertisements
Track Severe Weather on mobile